createdAt,value
2024-04-13T00:00:12.529Z,3.80
2024-04-13T00:02:42.177Z,4.20
2024-04-13T00:05:12.094Z,3.90
2024-04-13T00:07:39.538Z,4.40
2024-04-13T00:10:12.366Z,4.90
2024-04-13T00:12:39.647Z,4.73
2024-04-13T00:15:10.246Z,4.53
2024-04-13T00:17:37.514Z,7.93
2024-04-13T00:20:08.903Z,6.17
2024-04-13T00:22:36.999Z,4.37
2024-04-13T00:25:07.821Z,5.57
2024-04-13T00:27:38.075Z,6.50
2024-04-13T00:30:10.811Z,5.13
2024-04-13T00:32:38.220Z,4.30
2024-04-13T00:35:08.579Z,4.60
2024-04-13T00:37:36.145Z,5.83
2024-04-13T00:40:06.916Z,4.43
2024-04-13T00:42:37.529Z,6.17
2024-04-13T00:45:08.071Z,6.47
2024-04-13T00:47:36.062Z,5.30
2024-04-13T00:50:12.592Z,4.90
2024-04-13T00:52:42.556Z,4.77
2024-04-13T00:55:13.860Z,7.13
2024-04-13T00:57:45.287Z,5.57
2024-04-13T01:00:16.733Z,3.93
2024-04-13T01:02:45.861Z,4.10
2024-04-13T01:05:16.338Z,4.77
2024-04-13T01:07:44.244Z,5.93
2024-04-13T01:10:18.574Z,5.60
2024-04-13T01:12:48.890Z,5.90
2024-04-13T01:15:20.321Z,4.03
2024-04-13T01:17:48.794Z,4.73
2024-04-13T01:20:19.266Z,6.23
2024-04-13T01:22:47.122Z,6.17
2024-04-13T01:25:23.095Z,5.23
2024-04-13T01:27:50.450Z,5.07
2024-04-13T01:30:21.644Z,4.50
2024-04-13T01:32:49.253Z,4.67
2024-04-13T01:35:20.824Z,5.20
2024-04-13T01:37:48.205Z,3.60
2024-04-13T01:40:21.234Z,5.30
2024-04-13T01:42:48.619Z,3.63
2024-04-13T01:45:18.796Z,4.67
2024-04-13T01:47:46.261Z,4.70
2024-04-13T01:50:16.441Z,5.53
2024-04-13T01:52:43.749Z,5.57
2024-04-13T01:55:13.747Z,6.37
2024-04-13T01:57:43.660Z,4.13
2024-04-13T02:00:16.329Z,4.87
2024-04-13T02:02:43.811Z,5.63
2024-04-13T02:05:14.016Z,4.70
2024-04-13T02:07:41.688Z,9.67
2024-04-13T02:10:11.873Z,4.80
2024-04-13T02:12:39.265Z,6.33
2024-04-13T02:15:12.203Z,5.10
2024-04-13T02:17:39.748Z,5.10
2024-04-13T02:20:15.771Z,5.97
2024-04-13T02:22:43.324Z,7.53
2024-04-13T02:25:15.920Z,7.17
2024-04-13T02:27:43.461Z,9.83
2024-04-13T02:30:16.483Z,7.30
2024-04-13T02:32:44.458Z,7.63
2024-04-13T02:35:14.652Z,9.33
2024-04-13T02:37:42.206Z,6.67
2024-04-13T02:40:12.625Z,6.80
2024-04-13T02:42:40.212Z,10.90
2024-04-13T02:45:11.499Z,8.33
2024-04-13T02:47:41.784Z,7.53
2024-04-13T02:50:11.726Z,7.33
2024-04-13T02:52:39.629Z,7.50
2024-04-13T02:55:10.632Z,6.57
2024-04-13T02:57:38.086Z,7.63
2024-04-13T03:00:09.051Z,6.27
2024-04-13T03:02:36.541Z,7.13
2024-04-13T03:05:10.026Z,5.93
2024-04-13T03:07:37.339Z,6.40
2024-04-13T03:10:07.727Z,5.80
2024-04-13T03:12:35.125Z,8.43
2024-04-13T03:15:05.256Z,7.67
2024-04-13T03:17:33.141Z,5.63
2024-04-13T03:20:03.311Z,5.80
2024-04-13T03:22:34.733Z,8.30
2024-04-13T03:25:07.161Z,8.00
2024-04-13T03:27:35.281Z,7.90
2024-04-13T03:30:05.423Z,9.50
2024-04-13T03:32:32.874Z,7.13
2024-04-13T03:35:04.657Z,7.43
2024-04-13T03:37:35.072Z,6.90
2024-04-13T03:40:07.050Z,6.37
2024-04-13T03:42:36.910Z,6.80
2024-04-13T03:45:05.612Z,9.40
2024-04-13T03:47:35.970Z,8.27
2024-04-13T03:50:03.607Z,11.10
2024-04-13T03:52:36.179Z,10.80
2024-04-13T03:55:05.828Z,7.23
2024-04-13T03:57:35.950Z,7.97
2024-04-13T04:00:04.185Z,9.23
2024-04-13T04:02:34.161Z,10.67
2024-04-13T04:05:01.568Z,6.40
2024-04-13T04:07:31.718Z,8.33
2024-04-13T04:10:06.238Z,6.90
2024-04-13T04:12:33.594Z,8.20
2024-04-13T04:15:03.498Z,7.43
2024-04-13T04:17:30.902Z,7.20
2024-04-13T04:20:01.022Z,6.43
2024-04-13T04:22:28.213Z,6.33
2024-04-13T04:24:58.296Z,6.73
2024-04-13T04:27:29.149Z,7.23
2024-04-13T04:29:59.284Z,10.73
2024-04-13T04:32:26.757Z,8.40
2024-04-13T04:34:56.674Z,11.23
2024-04-13T04:37:23.983Z,9.20
2024-04-13T04:39:54.214Z,9.00
2024-04-13T04:42:21.593Z,11.97
2024-04-13T04:44:54.420Z,8.47
2024-04-13T04:47:21.696Z,9.90
2024-04-13T04:49:51.676Z,10.53
2024-04-13T04:52:25.174Z,10.53
2024-04-13T04:54:57.083Z,9.67
2024-04-13T04:57:24.471Z,10.27
2024-04-13T04:59:57.088Z,10.27
2024-04-13T05:02:25.553Z,11.27
2024-04-13T05:04:55.641Z,10.33
2024-04-13T05:07:22.961Z,9.83
2024-04-13T05:09:52.818Z,11.03
2024-04-13T05:12:20.198Z,7.87
2024-04-13T05:14:50.165Z,8.27
2024-04-13T05:17:20.079Z,8.93
2024-04-13T05:19:50.334Z,6.30
2024-04-13T05:22:17.646Z,6.03
2024-04-13T05:24:47.583Z,9.50
2024-04-13T05:27:14.899Z,8.07
2024-04-13T05:29:45.222Z,9.63
2024-04-13T05:32:13.639Z,11.17
2024-04-13T05:34:46.621Z,7.73
2024-04-13T05:37:14.058Z,9.20
2024-04-13T05:39:44.414Z,8.07
2024-04-13T05:42:11.720Z,9.87
2024-04-13T05:44:41.760Z,7.30
2024-04-13T05:47:09.204Z,7.13
2024-04-13T05:49:39.689Z,7.13
2024-04-13T05:52:09.934Z,8.77
2024-04-13T05:54:40.076Z,4.90
2024-04-13T05:57:08.512Z,8.10
2024-04-13T05:59:38.432Z,6.57
2024-04-13T06:02:06.094Z,7.23
2024-04-13T06:04:36.594Z,5.80
2024-04-13T06:07:04.135Z,4.77
2024-04-13T06:09:36.897Z,6.60
2024-04-13T06:12:04.547Z,7.00
2024-04-13T06:14:34.378Z,4.73
2024-04-13T06:17:03.015Z,4.30
2024-04-13T06:19:33.231Z,6.07
2024-04-13T06:22:00.621Z,6.23
2024-04-13T06:24:31.231Z,5.13
2024-04-13T06:27:01.613Z,5.00
2024-04-13T06:29:31.891Z,4.03
2024-04-13T06:32:00.681Z,3.53
2024-04-13T06:34:30.931Z,6.70
2024-04-13T06:36:58.238Z,6.93
2024-04-13T06:39:28.248Z,11.95
2024-04-13T06:41:55.920Z,12.30
2024-04-13T06:44:28.885Z,8.05
2024-04-13T06:46:56.663Z,10.63
2024-04-13T06:49:26.866Z,8.18
2024-04-13T06:51:54.516Z,5.35
2024-04-13T06:54:24.833Z,17.88
2024-04-13T06:56:52.312Z,8.73
2024-04-13T06:59:22.367Z,8.18
2024-04-13T07:01:53.364Z,9.20
2024-04-13T07:04:23.493Z,4.97
2024-04-13T07:06:50.950Z,5.32
2024-04-13T07:09:22.300Z,7.82
2024-04-13T07:11:49.687Z,11.80
2024-04-13T07:14:19.505Z,4.18
2024-04-13T07:16:46.744Z,5.43
2024-04-13T07:19:19.341Z,5.80
2024-04-13T07:21:46.768Z,5.78
2024-04-13T07:24:16.834Z,5.15
2024-04-13T07:26:44.845Z,7.35
2024-04-13T07:29:14.999Z,6.28
2024-04-13T07:31:42.327Z,8.52
2024-04-13T07:34:12.370Z,5.88
2024-04-13T07:36:42.389Z,5.70
2024-04-13T07:39:13.880Z,5.72
2024-04-13T07:41:41.704Z,5.55
2024-04-13T07:44:11.592Z,5.57
2024-04-13T07:46:38.886Z,8.15
2024-04-13T07:49:08.934Z,7.95
2024-04-13T07:51:36.579Z,8.15
2024-04-13T07:54:09.108Z,8.98
2024-04-13T07:56:36.333Z,8.35
2024-04-13T07:59:06.707Z,7.53
2024-04-13T08:01:34.269Z,5.32
2024-04-13T08:04:04.592Z,7.20
2024-04-13T08:06:31.894Z,7.30
2024-04-13T08:09:02.272Z,8.57
2024-04-13T08:11:33.420Z,7.00
2024-04-13T08:14:03.668Z,5.80
2024-04-13T08:16:31.752Z,6.40
2024-04-13T08:19:01.802Z,7.13
2024-04-13T08:21:29.299Z,5.57
2024-04-13T08:23:59.855Z,6.53
2024-04-13T08:26:27.244Z,5.40
2024-04-13T08:28:59.815Z,3.77
2024-04-13T08:31:27.814Z,5.70
2024-04-13T08:33:58.032Z,4.97
2024-04-13T08:36:25.300Z,7.07
2024-04-13T08:38:55.488Z,6.60
2024-04-13T08:41:38.734Z,4.57
2024-04-13T08:44:14.723Z,5.70
2024-04-13T08:46:45.465Z,7.57
2024-04-13T08:49:17.573Z,4.83
2024-04-13T08:51:48.297Z,4.20
2024-04-13T08:54:19.761Z,3.90
2024-04-13T08:56:48.938Z,5.40
2024-04-13T08:59:23.043Z,3.10
2024-04-13T09:01:50.822Z,3.37
2024-04-13T09:04:20.910Z,5.13
2024-04-13T09:06:50.311Z,4.50
2024-04-13T09:09:20.704Z,3.30
2024-04-13T09:11:48.398Z,4.87
2024-04-13T09:14:21.243Z,5.60
2024-04-13T09:16:48.667Z,4.57
2024-04-13T09:19:18.675Z,3.93
2024-04-13T09:21:47.199Z,4.70
2024-04-13T09:24:17.093Z,5.13
2024-04-13T09:26:45.978Z,4.33
2024-04-13T09:29:17.056Z,5.30
2024-04-13T09:31:47.159Z,3.77
2024-04-13T09:34:21.311Z,4.57
2024-04-13T09:36:49.734Z,3.10
2024-04-13T09:39:24.081Z,5.43
2024-04-13T09:41:51.980Z,4.90
2024-04-13T09:44:30.120Z,3.20
2024-04-13T09:47:00.214Z,3.30
2024-04-13T09:49:30.536Z,3.30
2024-04-13T09:51:58.061Z,4.27
2024-04-13T09:54:30.227Z,2.87
2024-04-13T09:56:58.026Z,3.73
2024-04-13T09:59:29.282Z,2.43
2024-04-13T10:01:59.697Z,5.97
2024-04-13T10:04:29.743Z,2.83
2024-04-13T10:07:01.659Z,3.63
2024-04-13T10:09:35.290Z,5.33
2024-04-13T10:12:04.656Z,4.43
2024-04-13T10:14:38.031Z,5.30
2024-04-13T10:17:08.795Z,2.30
2024-04-13T10:19:39.192Z,2.77
2024-04-13T10:22:15.182Z,3.27
2024-04-13T10:24:51.536Z,2.87
2024-04-13T10:27:23.669Z,3.27
2024-04-13T10:29:53.563Z,5.07
2024-04-13T10:32:23.842Z,3.30
2024-04-13T10:34:54.169Z,2.47
2024-04-13T10:37:25.262Z,3.73
2024-04-13T10:40:00.141Z,6.07
2024-04-13T10:42:37.638Z,3.70
2024-04-13T10:45:14.458Z,6.30
2024-04-13T10:47:45.592Z,3.50
2024-04-13T10:50:15.891Z,4.97
2024-04-13T10:52:43.230Z,4.23
2024-04-13T10:55:18.167Z,2.77
2024-04-13T10:57:49.204Z,4.80
2024-04-13T11:00:19.432Z,4.83
2024-04-13T11:02:51.905Z,4.20
2024-04-13T11:05:22.068Z,3.33
2024-04-13T11:07:50.193Z,4.57
2024-04-13T11:10:20.098Z,3.30
2024-04-13T11:12:48.529Z,4.23
2024-04-13T11:15:18.658Z,5.83
2024-04-13T11:17:49.086Z,4.13
2024-04-13T11:20:19.199Z,4.37
2024-04-13T11:22:46.876Z,4.20
2024-04-13T11:25:19.595Z,4.17
2024-04-13T11:27:47.586Z,2.90
2024-04-13T11:30:17.692Z,3.30
2024-04-13T11:32:45.211Z,2.63
2024-04-13T11:35:21.746Z,4.27
2024-04-13T11:37:56.208Z,2.43
2024-04-13T11:40:26.344Z,2.90
2024-04-13T11:42:55.972Z,5.57
2024-04-13T11:45:27.721Z,3.17
2024-04-13T11:47:55.429Z,2.40
2024-04-13T11:50:30.581Z,2.13
2024-04-13T11:52:58.149Z,2.23
2024-04-13T11:55:29.115Z,2.50
2024-04-13T11:57:59.227Z,3.17
2024-04-13T12:00:29.493Z,4.07
2024-04-13T12:02:57.924Z,1.73
2024-04-13T12:05:30.514Z,2.30
2024-04-13T12:07:58.031Z,2.63
2024-04-13T12:10:27.855Z,3.57
2024-04-13T12:12:55.164Z,1.60
2024-04-13T12:15:25.050Z,1.73
2024-04-13T12:17:52.283Z,2.07
2024-04-13T12:20:22.157Z,3.17
2024-04-13T12:22:52.397Z,2.20
2024-04-13T12:25:23.134Z,3.47
2024-04-13T12:27:50.664Z,3.17
2024-04-13T12:30:20.745Z,2.30
2024-04-13T12:32:48.091Z,2.20
2024-04-13T12:35:21.977Z,2.13
2024-04-13T12:37:51.906Z,3.77
2024-04-13T12:40:21.783Z,2.00
2024-04-13T12:42:49.166Z,2.30
2024-04-13T12:45:19.216Z,1.60
2024-04-13T12:47:46.608Z,1.67
2024-04-13T12:50:16.706Z,3.17
2024-04-13T12:52:51.190Z,2.27
2024-04-13T12:55:24.791Z,3.70
2024-04-13T12:57:52.184Z,2.83
2024-04-13T13:00:22.205Z,1.57
2024-04-13T13:02:49.577Z,2.00
2024-04-13T13:05:19.647Z,6.73
2024-04-13T13:07:47.059Z,3.00
2024-04-13T13:10:16.921Z,1.40
2024-04-13T13:12:47.033Z,2.60
2024-04-13T13:15:16.989Z,1.77
2024-04-13T13:17:44.280Z,4.73
2024-04-13T13:20:14.213Z,1.57
2024-04-13T13:22:41.518Z,3.93
2024-04-13T13:25:11.380Z,4.07
2024-04-13T13:27:38.883Z,2.20
2024-04-13T13:30:12.054Z,3.33
2024-04-13T13:32:39.454Z,3.20
2024-04-13T13:35:10.720Z,2.13
2024-04-13T13:37:38.132Z,3.37
2024-04-13T13:40:12.510Z,6.10
2024-04-13T13:42:39.801Z,2.43
2024-04-13T13:45:22.977Z,2.20
2024-04-13T13:47:51.353Z,3.43
2024-04-13T13:50:21.460Z,1.87
2024-04-13T13:52:52.177Z,1.93
2024-04-13T13:55:22.899Z,2.13
2024-04-13T13:57:50.339Z,3.90
2024-04-13T14:00:23.819Z,3.63
2024-04-13T14:02:51.179Z,5.97
2024-04-13T14:05:21.208Z,2.00
2024-04-13T14:07:48.562Z,4.87
2024-04-13T14:10:19.199Z,2.80
2024-04-13T14:12:47.654Z,2.87
2024-04-13T14:15:17.917Z,3.57
2024-04-13T14:17:48.033Z,3.83
2024-04-13T14:20:18.019Z,2.33
2024-04-13T14:22:45.351Z,3.23
2024-04-13T14:25:18.141Z,2.90
2024-04-13T14:27:45.562Z,1.47
2024-04-13T14:30:16.642Z,1.63
2024-04-13T14:32:44.085Z,1.63
2024-04-13T14:35:17.084Z,2.43
2024-04-13T14:37:44.306Z,2.03
2024-04-13T14:40:14.358Z,3.50
2024-04-13T14:42:41.596Z,1.97
2024-04-13T14:45:11.500Z,3.57
2024-04-13T14:47:38.845Z,2.83
2024-04-13T14:50:10.130Z,6.27
2024-04-13T14:52:40.153Z,2.57
2024-04-13T14:55:12.056Z,2.53
2024-04-13T14:57:39.625Z,2.53
2024-04-13T15:00:11.116Z,3.73
2024-04-13T15:02:38.711Z,2.00
2024-04-13T15:05:10.063Z,2.57
2024-04-13T15:07:40.249Z,3.10
2024-04-13T15:10:10.813Z,3.13
2024-04-13T15:12:38.586Z,2.93
2024-04-13T15:15:09.187Z,2.47
2024-04-13T15:17:36.577Z,1.83
2024-04-13T15:20:08.774Z,3.40
2024-04-13T15:22:36.325Z,3.00
2024-04-13T15:25:09.232Z,2.60
2024-04-13T15:27:36.447Z,1.90
2024-04-13T15:30:06.887Z,3.00
2024-04-13T15:32:34.369Z,3.00
2024-04-13T15:35:04.766Z,2.30
2024-04-13T15:37:33.167Z,2.17
2024-04-13T15:40:03.107Z,6.73
2024-04-13T15:42:33.073Z,3.10
2024-04-13T15:45:03.594Z,4.23
2024-04-13T15:47:30.974Z,1.97
2024-04-13T15:50:01.017Z,2.50
2024-04-13T15:52:28.365Z,3.90
2024-04-13T15:54:58.208Z,2.27
2024-04-13T15:57:25.554Z,2.70
2024-04-13T16:00:00.992Z,1.97
2024-04-13T16:02:28.839Z,4.57
2024-04-13T16:04:59.083Z,1.70
2024-04-13T16:07:29.549Z,5.70
2024-04-13T16:09:59.632Z,4.13
2024-04-13T16:12:26.945Z,3.83
2024-04-13T16:14:59.561Z,3.13
2024-04-13T16:17:26.834Z,3.07
2024-04-13T16:19:56.769Z,3.30
2024-04-13T16:22:24.424Z,2.87
2024-04-13T16:24:54.567Z,2.80
2024-04-13T16:27:21.895Z,3.30
2024-04-13T16:29:51.989Z,3.50
2024-04-13T16:32:22.316Z,1.87
2024-04-13T16:34:52.344Z,3.03
2024-04-13T16:37:22.250Z,2.30
2024-04-13T16:39:52.313Z,5.67
2024-04-13T16:42:19.706Z,2.30
2024-04-13T16:44:49.676Z,3.63
2024-04-13T16:47:17.734Z,2.80
2024-04-13T16:49:50.263Z,2.70
2024-04-13T16:52:17.498Z,3.77
2024-04-13T16:54:47.736Z,2.67
2024-04-13T16:57:15.070Z,4.67
2024-04-13T16:59:45.831Z,3.67
2024-04-13T17:02:13.194Z,2.00
2024-04-13T17:04:43.366Z,4.60
2024-04-13T17:07:13.289Z,2.17
2024-04-13T17:09:43.280Z,4.00
2024-04-13T17:12:11.583Z,3.90
2024-04-13T17:14:41.474Z,3.27
2024-04-13T17:17:08.751Z,3.63
2024-04-13T17:19:39.589Z,2.10
2024-04-13T17:22:06.787Z,3.67
2024-04-13T17:24:39.564Z,2.00
2024-04-13T17:27:06.909Z,2.07
2024-04-13T17:29:36.993Z,5.50
2024-04-13T17:32:04.871Z,3.33
2024-04-13T17:34:40.924Z,4.10
2024-04-13T17:37:08.510Z,4.50
2024-04-13T17:39:40.978Z,3.77
2024-04-13T17:42:08.264Z,2.20
2024-04-13T17:44:38.148Z,3.53
2024-04-13T17:47:05.768Z,2.00
2024-04-13T17:49:36.709Z,1.80
2024-04-13T17:52:04.288Z,2.90
2024-04-13T17:54:34.260Z,2.50
2024-04-13T17:57:04.482Z,3.13
2024-04-13T17:59:34.411Z,2.50
2024-04-13T18:02:01.663Z,2.87
2024-04-13T18:04:31.506Z,3.17
2024-04-13T18:06:58.890Z,3.87
2024-04-13T18:09:28.836Z,2.10
2024-04-13T18:11:56.203Z,3.30
2024-04-13T18:14:28.647Z,3.00
2024-04-13T18:16:56.021Z,4.30
2024-04-13T18:19:26.312Z,3.03
2024-04-13T18:21:53.705Z,5.57
2024-04-13T18:24:24.013Z,4.07
2024-04-13T18:26:52.669Z,3.40
2024-04-13T18:29:23.642Z,19.33
2024-04-13T18:31:53.693Z,41.77
2024-04-13T18:34:23.757Z,63.73
2024-04-13T18:36:51.239Z,48.70
2024-04-13T18:39:25.731Z,31.27
2024-04-13T18:41:53.309Z,34.17
2024-04-13T18:44:23.330Z,49.70
2024-04-13T18:46:53.181Z,48.83
2024-04-13T18:49:23.165Z,35.63
2024-04-13T18:51:50.580Z,51.37
2024-04-13T18:54:22.507Z,47.37
2024-04-13T18:56:49.757Z,58.37
2024-04-13T18:59:19.788Z,68.43
2024-04-13T19:01:47.385Z,69.77
2024-04-13T19:04:20.090Z,56.40
2024-04-13T19:06:47.341Z,62.43
2024-04-13T19:09:17.197Z,74.03
2024-04-13T19:11:44.756Z,50.10
2024-04-13T19:14:14.725Z,33.20
2024-04-13T19:16:42.506Z,21.00
2024-04-13T19:19:14.702Z,26.53
2024-04-13T19:21:44.863Z,17.17
2024-04-13T19:24:14.784Z,12.83
2024-04-13T19:26:42.086Z,22.20
2024-04-13T19:29:12.002Z,12.43
2024-04-13T19:31:39.309Z,18.17
2024-04-13T19:34:09.954Z,20.77
2024-04-13T19:36:37.603Z,16.07
2024-04-13T19:39:10.880Z,11.73
2024-04-13T19:41:42.746Z,9.43
2024-04-13T19:44:13.993Z,23.50
2024-04-13T19:46:41.354Z,18.23
2024-04-13T19:49:11.492Z,15.80
2024-04-13T19:51:39.889Z,12.43
2024-04-13T19:54:12.759Z,13.07
2024-04-13T19:56:40.106Z,8.53
2024-04-13T19:59:16.569Z,11.60
2024-04-13T20:01:43.986Z,21.60
2024-04-13T20:04:14.141Z,23.40
2024-04-13T20:06:41.849Z,10.40
2024-04-13T20:09:14.472Z,8.83
2024-04-13T20:11:41.802Z,29.77
2024-04-13T20:14:11.914Z,45.57
2024-04-13T20:16:57.708Z,12.23
2024-04-13T20:19:27.740Z,11.63
2024-04-13T20:21:57.899Z,10.60
2024-04-13T20:24:30.602Z,5.30
2024-04-13T20:27:00.582Z,7.40
2024-04-13T20:29:30.454Z,12.47
2024-04-13T20:31:59.421Z,22.97
2024-04-13T20:34:29.391Z,28.50
2024-04-13T20:36:56.656Z,16.40
2024-04-13T20:39:26.670Z,9.37
2024-04-13T20:41:56.663Z,23.50
2024-04-13T20:44:26.758Z,10.33
2024-04-13T20:46:54.188Z,5.53
2024-04-13T20:49:24.009Z,7.93
2024-04-13T20:51:51.369Z,18.47
2024-04-13T20:54:21.642Z,13.97
2024-04-13T20:56:48.890Z,4.67
2024-04-13T20:59:21.407Z,4.87
2024-04-13T21:01:51.407Z,5.03
2024-04-13T21:04:18.771Z,6.07
2024-04-13T21:06:48.705Z,6.40
2024-04-13T21:09:16.041Z,4.47
2024-04-13T21:11:46.059Z,5.00
2024-04-13T21:14:13.652Z,5.20
2024-04-13T21:16:47.530Z,4.27
2024-04-13T21:19:14.835Z,4.70
2024-04-13T21:21:44.839Z,3.87
2024-04-13T21:24:12.103Z,4.90
2024-04-13T21:26:42.099Z,3.23
2024-04-13T21:29:09.348Z,3.50
2024-04-13T21:31:39.214Z,3.13
2024-04-13T21:34:09.228Z,4.20
2024-04-13T21:36:39.071Z,3.63
2024-04-13T21:39:06.392Z,3.40
2024-04-13T21:41:36.523Z,5.70
2024-04-13T21:44:04.565Z,4.40
2024-04-13T21:46:34.607Z,3.87
2024-04-13T21:49:01.925Z,3.73
2024-04-13T21:51:37.458Z,7.00
2024-04-13T21:54:04.946Z,3.33
2024-04-13T21:56:34.910Z,5.50
2024-04-13T21:59:02.339Z,4.33
2024-04-13T22:01:32.691Z,5.53
2024-04-13T22:04:00.307Z,4.10
2024-04-13T22:06:30.344Z,4.50
2024-04-13T22:09:00.711Z,3.10
2024-04-13T22:11:30.830Z,5.33
2024-04-13T22:13:58.151Z,2.77
2024-04-13T22:16:29.546Z,2.70
2024-04-13T22:19:00.170Z,4.50
2024-04-13T22:21:30.429Z,2.57
2024-04-13T22:24:02.870Z,3.33
2024-04-13T22:26:32.759Z,4.50
2024-04-13T22:28:59.942Z,3.03
2024-04-13T22:31:30.028Z,5.90
2024-04-13T22:33:57.328Z,4.03
2024-04-13T22:36:32.143Z,2.50
2024-04-13T22:39:02.801Z,2.47
2024-04-13T22:41:33.150Z,4.30
2024-04-13T22:44:00.415Z,3.07
2024-04-13T22:46:30.876Z,2.90
2024-04-13T22:49:03.196Z,3.80
2024-04-13T22:51:35.482Z,3.63
2024-04-13T22:54:06.262Z,2.43
2024-04-13T22:56:36.463Z,3.30
2024-04-13T22:59:03.776Z,2.37
2024-04-13T23:01:35.061Z,3.97
2024-04-13T23:04:02.409Z,3.03
2024-04-13T23:06:32.384Z,3.20
2024-04-13T23:08:59.757Z,3.27
2024-04-13T23:11:32.310Z,2.43
2024-04-13T23:14:01.086Z,2.50
2024-04-13T23:16:31.003Z,2.27
2024-04-13T23:18:58.455Z,2.83
2024-04-13T23:21:28.817Z,2.20
2024-04-13T23:23:56.907Z,2.43
2024-04-13T23:26:28.302Z,2.63
2024-04-13T23:28:58.296Z,2.20
2024-04-13T23:31:28.298Z,2.47
2024-04-13T23:33:56.219Z,2.27
2024-04-13T23:36:26.260Z,4.13
2024-04-13T23:38:53.550Z,2.40
2024-04-13T23:41:23.424Z,2.23
2024-04-13T23:43:51.018Z,2.27
2024-04-13T23:46:23.610Z,2.47
2024-04-13T23:48:50.904Z,2.40
2024-04-13T23:51:20.781Z,2.87
2024-04-13T23:53:47.986Z,3.17
2024-04-13T23:56:17.846Z,4.00
2024-04-13T23:58:45.318Z,2.20
